Time;durP1;ratioP1;P1;durP2;ratioP2;P2;SDS_P1;SDS_P2;PMS_P1;PMS_P2;Temp;Humidity;BMP_temperature;BMP_pressure;BME280_temperature;BME280_humidity;BME280_pressure;Samples;Min_cycle;Max_cycle;Signal;HPM_P1;HPM_P2
2023/09/28 00:02:52;;;;;;;12.27;6.63;;;19.20;88.20;;;;;;5019635;28;20040;-82
2023/09/28 00:05:21;;;;;;;9.63;6.15;;;19.10;88.20;;;;;;5016442;28;20042;-77
2023/09/28 00:07:49;;;;;;;9.57;6.07;;;19.10;88.20;;;;;;5015045;28;20029;-75
2023/09/28 00:10:16;;;;;;;11.18;6.30;;;19.10;88.40;;;;;;5011805;28;20103;-77
2023/09/28 00:12:45;;;;;;;8.77;5.88;;;19.10;88.50;;;;;;5019550;28;20017;-78
2023/09/28 00:15:11;;;;;;;11.05;5.95;;;19.10;88.60;;;;;;5015596;28;20476;-78
2023/09/28 00:17:40;;;;;;;9.43;5.68;;;19.10;88.70;;;;;;5017741;28;20113;-81
2023/09/28 00:20:17;;;;;;;9.10;6.40;;;19.10;88.80;;;;;;5019890;28;20037;-78
2023/09/28 00:22:51;;;;;;;11.27;6.47;;;19.10;88.80;;;;;;5021505;28;20029;-81
2023/09/28 00:25:19;;;;;;;9.70;6.55;;;19.10;88.80;;;;;;5024798;28;20053;-75
2023/09/28 00:27:50;;;;;;;8.98;5.50;;;19.10;88.70;;;;;;5018804;28;20029;-79
2023/09/28 00:30:19;;;;;;;11.00;6.95;;;19.20;88.70;;;;;;5018605;28;20037;-78
2023/09/28 00:32:46;;;;;;;9.30;5.88;;;19.20;88.70;;;;;;5022608;28;20030;-80
2023/09/28 00:35:13;;;;;;;10.15;5.88;;;19.20;88.60;;;;;;5024515;28;20033;-74
2023/09/28 00:37:39;;;;;;;8.45;5.85;;;19.30;88.60;;;;;;5020165;28;20317;-75
2023/09/28 00:40:19;;;;;;;10.60;6.20;;;19.30;88.60;;;;;;5023379;28;20049;-76
2023/09/28 00:42:52;;;;;;;10.63;6.07;;;19.30;88.60;;;;;;5023861;28;20021;-86
2023/09/28 00:45:21;;;;;;;13.60;6.93;;;19.30;88.60;;;;;;5023918;28;20087;-82
2023/09/28 00:47:50;;;;;;;10.77;6.35;;;19.30;88.60;;;;;;5021528;28;20029;-77
2023/09/28 00:50:17;;;;;;;11.00;6.03;;;19.30;88.60;;;;;;5024412;28;20049;-74
2023/09/28 00:53:04;;;;;;;10.25;6.57;;;19.30;88.60;;;;;;5019792;28;20033;-74
2023/09/28 00:55:30;;;;;;;12.52;6.70;;;19.30;88.70;;;;;;5021477;28;20050;-81
2023/09/28 00:58:01;;;;;;;12.15;6.82;;;19.30;88.70;;;;;;5023543;28;20321;-74
2023/09/28 01:00:29;;;;;;;12.05;7.15;;;19.30;88.60;;;;;;5016900;28;20045;-74
2023/09/28 01:02:57;;;;;;;16.25;7.00;;;19.30;88.60;;;;;;5017270;28;20021;-74
2023/09/28 01:05:49;;;;;;;11.23;5.97;;;19.30;88.40;;;;;;5020211;28;20042;-84
2023/09/28 01:08:18;;;;;;;9.80;4.82;;;19.30;88.10;;;;;;5011233;28;20034;-74
2023/09/28 01:10:44;;;;;;;17.08;5.30;;;19.30;86.70;;;;;;5019477;28;20477;-77
2023/09/28 01:13:20;;;;;;;13.40;4.35;;;19.40;84.90;;;;;;5022804;28;20026;-78
2023/09/28 01:15:48;;;;;;;12.93;4.10;;;19.40;84.10;;;;;;5014133;28;20516;-80
2023/09/28 01:18:17;;;;;;;11.85;3.75;;;19.40;82.90;;;;;;5016816;28;20033;-77
2023/09/28 01:20:48;;;;;;;14.30;4.05;;;19.40;82.10;;;;;;5021102;28;20119;-76
2023/09/28 01:23:14;;;;;;;13.65;3.40;;;19.40;81.20;;;;;;5019434;28;20029;-85
2023/09/28 01:25:41;;;;;;;12.75;3.13;;;19.50;80.70;;;;;;5022620;28;20045;-74
2023/09/28 01:28:07;;;;;;;16.65;3.90;;;19.40;80.80;;;;;;5022770;28;20030;-73
2023/09/28 01:30:33;;;;;;;15.30;3.47;;;19.50;80.80;;;;;;5021021;28;20080;-74
2023/09/28 01:33:00;;;;;;;12.90;3.72;;;19.40;80.90;;;;;;5016579;28;20096;-73
2023/09/28 01:35:27;;;;;;;12.35;3.80;;;19.40;80.80;;;;;;5020972;28;20061;-77
2023/09/28 01:38:14;;;;;;;15.02;4.28;;;19.40;81.10;;;;;;5022857;28;20052;-79
2023/09/28 01:40:40;;;;;;;13.23;3.80;;;19.40;81.20;;;;;;5017716;28;20029;-85
2023/09/28 01:43:07;;;;;;;12.70;3.85;;;19.30;81.00;;;;;;5023106;28;20314;-79
2023/09/28 01:45:33;;;;;;;15.63;4.45;;;19.20;80.60;;;;;;5014845;28;20395;-74
2023/09/28 01:47:59;;;;;;;14.00;3.20;;;19.20;79.70;;;;;;5017636;28;20121;-83
2023/09/28 01:50:25;;;;;;;17.15;4.05;;;19.20;79.60;;;;;;5021675;28;20037;-73
2023/09/28 01:52:51;;;;;;;16.45;3.90;;;19.20;79.80;;;;;;5018179;28;20079;-76
2023/09/28 01:55:17;;;;;;;13.70;3.58;;;19.10;80.10;;;;;;5020259;28;20268;-79
2023/09/28 01:57:42;;;;;;;17.77;4.38;;;19.10;80.30;;;;;;5018958;28;20674;-76
2023/09/28 02:00:15;;;;;;;15.95;4.25;;;19.00;80.60;;;;;;5018980;28;20030;-82
2023/09/28 02:02:44;;;;;;;17.75;3.97;;;19.00;80.70;;;;;;5020939;28;20028;-83
2023/09/28 02:05:13;;;;;;;17.95;4.50;;;19.00;80.60;;;;;;5024335;28;20124;-77
2023/09/28 02:07:39;;;;;;;15.73;4.10;;;18.90;80.80;;;;;;5022276;28;20032;-75
2023/09/28 02:10:06;;;;;;;24.13;5.72;;;18.80;81.20;;;;;;5021181;28;20442;-83
2023/09/28 02:12:32;;;;;;;20.02;4.45;;;18.80;81.60;;;;;;5018095;28;20021;-74
2023/09/28 02:15:00;;;;;;;26.17;5.57;;;18.70;81.80;;;;;;5020957;28;20033;-76
2023/09/28 02:17:28;;;;;;;27.13;5.82;;;18.60;82.00;;;;;;5021395;28;20018;-82
2023/09/28 02:19:54;;;;;;;23.27;5.93;;;18.60;82.40;;;;;;5019861;28;20060;-84
2023/09/28 02:22:20;;;;;;;25.88;5.68;;;18.50;82.90;;;;;;5021958;28;20029;-74
2023/09/28 02:24:46;;;;;;;25.58;5.43;;;18.30;83.30;;;;;;5016644;28;20473;-76
2023/09/28 02:27:12;;;;;;;26.92;6.30;;;18.30;83.50;;;;;;5020867;28;20025;-76
2023/09/28 02:29:38;;;;;;;25.27;6.28;;;18.20;83.80;;;;;;5021526;28;20087;-79
2023/09/28 02:32:04;;;;;;;24.83;6.10;;;18.10;84.20;;;;;;5017150;28;20396;-77
2023/09/28 02:34:33;;;;;;;22.98;6.53;;;18.10;84.30;;;;;;5018503;28;20037;-76
2023/09/28 02:37:01;;;;;;;25.55;6.68;;;18.10;84.50;;;;;;5017880;28;20061;-73
2023/09/28 02:39:28;;;;;;;25.70;5.68;;;18.00;84.80;;;;;;5022383;28;20103;-81
2023/09/28 02:41:55;;;;;;;24.08;7.00;;;18.00;85.10;;;;;;5023468;28;20038;-76
2023/09/28 02:44:21;;;;;;;22.15;6.25;;;17.80;85.30;;;;;;5021876;28;20044;-78
2023/09/28 02:46:48;;;;;;;29.05;6.43;;;17.80;85.50;;;;;;5015810;28;20100;-78
2023/09/28 02:49:13;;;;;;;26.52;4.97;;;17.70;85.60;;;;;;5013098;28;20091;-75
2023/09/28 02:51:39;;;;;;;18.92;5.25;;;17.70;85.80;;;;;;5018188;28;20056;-74
2023/09/28 02:54:05;;;;;;;23.83;5.60;;;17.60;85.90;;;;;;5020818;28;20025;-75
2023/09/28 02:56:30;;;;;;;24.63;5.68;;;17.60;86.00;;;;;;5019665;28;20049;-73
2023/09/28 02:58:56;;;;;;;27.48;5.68;;;17.60;86.10;;;;;;5021188;28;20073;-78
2023/09/28 03:01:22;;;;;;;26.83;5.07;;;17.50;86.30;;;;;;5022696;28;20123;-76
2023/09/28 03:03:49;;;;;;;23.48;5.32;;;17.50;86.50;;;;;;5017738;28;20531;-74
2023/09/28 03:06:15;;;;;;;23.40;4.85;;;17.40;86.70;;;;;;5017282;28;20075;-82
2023/09/28 03:08:41;;;;;;;24.90;5.55;;;17.40;86.80;;;;;;5016435;28;20033;-76
2023/09/28 03:11:06;;;;;;;24.88;5.32;;;17.30;86.80;;;;;;5021275;28;20461;-76
2023/09/28 03:13:32;;;;;;;24.13;5.00;;;17.30;87.00;;;;;;5018581;28;20033;-76
2023/09/28 03:15:58;;;;;;;22.88;5.38;;;17.20;87.20;;;;;;5017445;28;20041;-76
2023/09/28 03:18:24;;;;;;;23.35;4.45;;;17.30;87.40;;;;;;5022269;28;20068;-81
2023/09/28 03:20:49;;;;;;;23.38;4.97;;;17.20;87.60;;;;;;5019236;28;20799;-75
2023/09/28 03:23:15;;;;;;;22.92;5.43;;;17.10;88.00;;;;;;5022115;28;20033;-74
2023/09/28 03:25:42;;;;;;;16.77;4.55;;;17.10;88.20;;;;;;5017347;28;20124;-79
2023/09/28 03:28:08;;;;;;;25.42;5.35;;;17.10;88.30;;;;;;5017943;28;20037;-78
2023/09/28 03:30:33;;;;;;;26.67;6.72;;;17.00;88.50;;;;;;5022855;28;20029;-76
2023/09/28 03:32:59;;;;;;;30.70;6.47;;;17.00;88.60;;;;;;5019932;28;20412;-75
2023/09/28 03:35:26;;;;;;;24.58;5.93;;;17.00;89.00;;;;;;5020062;28;20431;-76
2023/09/28 03:37:54;;;;;;;25.75;5.63;;;16.90;88.90;;;;;;5020037;28;20056;-82
2023/09/28 03:40:19;;;;;;;23.67;4.78;;;16.90;89.10;;;;;;5017782;28;20353;-76
2023/09/28 03:42:49;;;;;;;25.55;5.50;;;16.80;89.30;;;;;;5018059;28;20025;-74
2023/09/28 03:45:22;;;;;;;26.17;6.45;;;16.80;89.40;;;;;;5017265;28;20045;-76
2023/09/28 03:47:52;;;;;;;31.08;5.57;;;16.80;89.60;;;;;;5020420;28;20103;-85
2023/09/28 03:50:19;;;;;;;24.60;5.53;;;16.80;89.70;;;;;;5014040;28;20448;-81
2023/09/28 03:52:45;;;;;;;25.73;5.75;;;16.80;89.70;;;;;;5014811;28;20022;-76
2023/09/28 03:55:13;;;;;;;29.60;5.82;;;16.70;89.90;;;;;;5019938;28;20052;-82
2023/09/28 03:57:40;;;;;;;27.65;6.25;;;16.70;89.90;;;;;;5020142;28;20022;-78
2023/09/28 04:00:08;;;;;;;25.25;5.82;;;16.60;90.00;;;;;;5020590;28;20048;-83
2023/09/28 04:02:34;;;;;;;23.95;6.07;;;16.60;90.10;;;;;;5027154;28;20024;-81
2023/09/28 04:05:00;;;;;;;27.33;5.47;;;16.60;90.10;;;;;;5030243;28;20037;-87
2023/09/28 04:07:25;;;;;;;28.45;6.28;;;16.60;90.10;;;;;;5036376;28;20022;-78
2023/09/28 04:09:51;;;;;;;25.88;5.20;;;16.60;90.30;;;;;;5019149;28;20041;-85
2023/09/28 04:12:17;;;;;;;24.08;4.80;;;16.60;90.20;;;;;;5018112;28;20036;-76
2023/09/28 04:14:42;;;;;;;26.70;6.65;;;16.60;90.30;;;;;;5018094;28;20112;-78
2023/09/28 04:17:08;;;;;;;32.38;5.93;;;16.50;90.30;;;;;;5016932;28;20033;-79
2023/09/28 04:19:34;;;;;;;30.65;6.28;;;16.50;90.40;;;;;;5018151;28;20045;-73
2023/09/28 04:22:00;;;;;;;26.48;5.97;;;16.50;90.30;;;;;;5015896;28;20096;-80
2023/09/28 04:24:25;;;;;;;26.80;7.40;;;16.40;90.40;;;;;;5018154;28;20462;-74
2023/09/28 04:26:51;;;;;;;29.45;6.53;;;16.40;90.60;;;;;;5019981;28;20072;-73
2023/09/28 04:29:17;;;;;;;27.50;6.55;;;16.40;90.60;;;;;;5014082;28;20382;-79
2023/09/28 04:31:43;;;;;;;34.10;7.60;;;16.40;90.60;;;;;;5013918;28;20025;-78
2023/09/28 04:34:12;;;;;;;28.92;7.18;;;16.40;90.50;;;;;;5010293;28;20647;-80
2023/09/28 04:36:38;;;;;;;23.95;6.05;;;16.30;90.50;;;;;;5006980;28;20481;-79
2023/09/28 04:39:05;;;;;;;28.70;6.07;;;16.30;90.60;;;;;;5005114;28;20081;-73
2023/09/28 04:41:31;;;;;;;23.02;5.50;;;16.20;90.70;;;;;;5011204;28;20480;-84
2023/09/28 04:43:58;;;;;;;26.20;5.95;;;16.20;90.70;;;;;;5010346;28;20486;-74
2023/09/28 04:46:24;;;;;;;27.00;5.90;;;16.20;90.80;;;;;;5012699;28;20246;-76
2023/09/28 04:48:49;;;;;;;25.13;5.10;;;16.10;90.70;;;;;;5006333;28;20655;-76
2023/09/28 04:51:15;;;;;;;27.58;6.45;;;16.10;91.00;;;;;;5012261;28;20030;-77
2023/09/28 04:53:41;;;;;;;28.42;5.50;;;16.10;91.10;;;;;;5013507;28;20087;-77
2023/09/28 04:56:11;;;;;;;22.77;5.82;;;16.10;91.20;;;;;;5015030;28;20060;-80
2023/09/28 04:58:38;;;;;;;24.65;5.28;;;16.10;91.20;;;;;;5012014;28;20128;-75
2023/09/28 05:01:04;;;;;;;30.70;6.70;;;16.10;91.10;;;;;;5017230;28;20034;-74
2023/09/28 05:03:30;;;;;;;26.45;5.25;;;16.10;91.10;;;;;;5016967;28;20060;-83
2023/09/28 05:05:57;;;;;;;28.60;5.70;;;16.00;91.30;;;;;;5016265;28;20141;-74
2023/09/28 05:08:23;;;;;;;25.13;5.50;;;16.00;91.40;;;;;;5016687;28;20030;-74
2023/09/28 05:10:50;;;;;;;28.23;6.25;;;16.00;91.50;;;;;;5019993;28;20026;-85
2023/09/28 05:13:15;;;;;;;27.88;6.35;;;15.90;91.50;;;;;;5017824;28;20427;-80
2023/09/28 05:15:41;;;;;;;26.00;5.07;;;15.90;91.70;;;;;;5019480;28;20026;-74
2023/09/28 05:18:07;;;;;;;20.33;5.15;;;15.90;91.80;;;;;;5019551;28;20034;-76
2023/09/28 05:20:32;;;;;;;28.52;5.35;;;15.90;91.70;;;;;;5017114;28;20089;-75
2023/09/28 05:22:58;;;;;;;25.77;5.97;;;15.80;91.80;;;;;;5013787;28;20041;-76
2023/09/28 05:25:25;;;;;;;25.92;6.05;;;15.80;91.80;;;;;;5018983;28;20038;-76
2023/09/28 05:27:51;;;;;;;28.23;6.25;;;15.80;91.80;;;;;;5018642;28;20116;-77
2023/09/28 05:30:17;;;;;;;22.77;4.97;;;15.80;91.90;;;;;;5019188;28;20045;-77
2023/09/28 05:32:43;;;;;;;28.30;5.82;;;15.80;91.90;;;;;;5022642;28;20028;-76
2023/09/28 05:35:08;;;;;;;25.20;5.32;;;15.80;92.00;;;;;;5016933;28;20079;-81
2023/09/28 05:37:35;;;;;;;27.15;6.15;;;15.70;92.00;;;;;;5015487;28;20029;-77
2023/09/28 05:40:01;;;;;;;31.88;6.40;;;15.70;92.10;;;;;;5012674;28;20038;-77
2023/09/28 05:42:27;;;;;;;29.10;5.95;;;15.70;92.10;;;;;;5015761;28;20075;-82
2023/09/28 05:44:52;;;;;;;33.08;5.68;;;15.70;92.10;;;;;;5014988;28;20045;-75
2023/09/28 05:47:21;;;;;;;28.67;6.47;;;15.70;92.20;;;;;;5019179;28;20030;-74
2023/09/28 05:49:49;;;;;;;27.20;5.38;;;15.70;92.20;;;;;;5018154;28;20045;-80
2023/09/28 05:52:15;;;;;;;28.98;6.03;;;15.70;92.20;;;;;;5015299;28;20041;-77
2023/09/28 05:54:42;;;;;;;25.92;6.32;;;15.70;92.10;;;;;;5018507;28;20103;-75
2023/09/28 05:57:07;;;;;;;24.67;6.47;;;15.80;92.10;;;;;;5015530;28;20495;-78
2023/09/28 05:59:33;;;;;;;22.63;4.75;;;15.80;92.10;;;;;;5012173;28;20033;-77
2023/09/28 06:01:58;;;;;;;29.17;6.20;;;15.80;92.00;;;;;;5018154;28;20091;-77
2023/09/28 06:04:25;;;;;;;28.77;6.32;;;15.80;92.00;;;;;;5015049;28;20044;-78
2023/09/28 06:06:51;;;;;;;23.52;5.18;;;15.90;91.80;;;;;;5019949;28;20022;-77
2023/09/28 06:09:21;;;;;;;23.67;6.22;;;15.90;91.80;;;;;;5018198;28;20041;-76
2023/09/28 06:11:46;;;;;;;25.90;5.95;;;16.00;91.70;;;;;;5016869;28;20116;-79
2023/09/28 06:14:15;;;;;;;25.38;5.88;;;16.00;91.80;;;;;;5017946;28;20445;-81
2023/09/28 06:16:42;;;;;;;26.13;5.63;;;16.10;91.60;;;;;;5020024;28;20040;-80
2023/09/28 06:19:09;;;;;;;27.38;5.80;;;16.10;91.50;;;;;;5016050;28;20036;-80
2023/09/28 06:21:34;;;;;;;30.70;6.03;;;16.20;91.50;;;;;;5022730;28;20557;-75
2023/09/28 06:24:00;;;;;;;26.75;6.18;;;16.40;91.30;;;;;;5016121;28;20073;-76
2023/09/28 06:26:26;;;;;;;27.67;6.20;;;16.50;91.00;;;;;;5019826;28;20064;-74
2023/09/28 06:28:52;;;;;;;25.58;5.43;;;16.70;90.40;;;;;;5019109;28;20037;-73
2023/09/28 06:31:19;;;;;;;26.58;5.63;;;16.80;90.00;;;;;;5018381;28;20537;-74
2023/09/28 06:33:48;;;;;;;25.27;5.88;;;16.90;89.60;;;;;;5018833;28;20038;-73
2023/09/28 06:36:15;;;;;;;30.92;6.28;;;17.00;89.50;;;;;;5015951;28;20034;-73
2023/09/28 06:38:41;;;;;;;21.25;5.10;;;16.90;89.40;;;;;;5015313;28;20087;-73
2023/09/28 06:41:07;;;;;;;23.98;5.78;;;16.80;89.50;;;;;;5020052;28;20048;-72
2023/09/28 06:43:35;;;;;;;23.83;6.00;;;16.90;89.70;;;;;;5012583;28;20041;-72
2023/09/28 06:46:01;;;;;;;28.08;5.93;;;16.90;89.60;;;;;;5014607;28;20046;-73
2023/09/28 06:48:28;;;;;;;24.95;5.35;;;17.00;89.70;;;;;;5021906;28;20017;-73
2023/09/28 06:50:59;;;;;;;24.30;5.63;;;17.00;89.60;;;;;;5014254;28;20029;-75
2023/09/28 06:53:25;;;;;;;27.08;5.38;;;17.10;89.50;;;;;;5026771;28;20029;-74
2023/09/28 06:55:52;;;;;;;27.45;5.38;;;17.10;89.40;;;;;;5019805;28;20157;-75
2023/09/28 06:58:18;;;;;;;27.73;5.68;;;17.10;89.40;;;;;;5015368;28;20062;-72
2023/09/28 07:00:47;;;;;;;31.00;5.88;;;17.10;89.40;;;;;;5018280;28;21011;-74
2023/09/28 07:03:14;;;;;;;27.35;6.40;;;17.20;89.50;;;;;;5020062;28;20067;-73
2023/09/28 07:05:40;;;;;;;28.58;6.80;;;17.20;89.30;;;;;;5015399;28;20372;-73
2023/09/28 07:08:06;;;;;;;21.70;5.38;;;17.30;89.40;;;;;;5010580;28;20338;-74
2023/09/28 07:10:33;;;;;;;24.15;5.15;;;17.30;89.20;;;;;;5015611;28;20023;-74
2023/09/28 07:13:04;;;;;;;26.48;5.70;;;17.20;89.30;;;;;;5017474;28;20112;-74
2023/09/28 07:15:31;;;;;;;29.88;5.50;;;17.30;89.10;;;;;;5015364;28;20383;-77
2023/09/28 07:17:58;;;;;;;26.98;5.28;;;17.30;89.10;;;;;;5016882;28;20065;-75
2023/09/28 07:20:27;;;;;;;22.85;5.18;;;17.30;88.90;;;;;;5020661;28;20117;-75
2023/09/28 07:22:54;;;;;;;23.67;5.20;;;17.30;89.00;;;;;;5016409;28;20105;-74
2023/09/28 07:25:20;;;;;;;27.17;5.78;;;17.40;89.00;;;;;;5019866;28;20177;-74
2023/09/28 07:27:50;;;;;;;26.85;6.00;;;17.40;88.70;;;;;;5015669;28;20013;-75
2023/09/28 07:30:22;;;;;;;22.38;5.35;;;17.50;88.70;;;;;;5015988;28;20104;-73
2023/09/28 07:32:49;;;;;;;25.75;6.18;;;17.60;88.60;;;;;;5012808;28;20075;-75
2023/09/28 07:35:16;;;;;;;25.95;5.82;;;17.70;88.20;;;;;;5009940;28;20037;-74
2023/09/28 07:37:43;;;;;;;27.70;6.32;;;17.70;88.00;;;;;;5018286;28;20020;-75
2023/09/28 07:40:12;;;;;;;23.90;5.38;;;17.80;87.70;;;;;;5017598;28;20022;-75
2023/09/28 07:42:41;;;;;;;24.50;5.05;;;17.80;87.40;;;;;;5017718;28;20022;-74
2023/09/28 07:45:08;;;;;;;24.02;5.65;;;17.80;87.30;;;;;;5015919;28;20037;-74
2023/09/28 07:47:34;;;;;;;24.13;5.63;;;17.90;87.40;;;;;;5012961;28;20397;-74
2023/09/28 07:50:00;;;;;;;25.77;5.45;;;17.90;87.10;;;;;;5015327;28;20100;-74
2023/09/28 07:52:26;;;;;;;22.83;5.43;;;18.00;86.70;;;;;;5015153;28;20028;-73
2023/09/28 07:54:52;;;;;;;25.80;5.72;;;18.10;87.10;;;;;;5014476;28;20048;-74
2023/09/28 07:57:17;;;;;;;25.35;5.95;;;18.10;86.40;;;;;;5011934;28;20042;-73
2023/09/28 07:59:43;;;;;;;23.02;4.95;;;18.10;86.50;;;;;;5013856;28;20052;-73
2023/09/28 08:02:09;;;;;;;26.05;6.57;;;18.10;86.10;;;;;;5011848;28;20033;-76
2023/09/28 08:04:36;;;;;;;18.70;5.38;;;18.10;86.00;;;;;;5016123;28;20051;-74
2023/09/28 08:07:03;;;;;;;29.42;5.95;;;18.20;86.10;;;;;;5012028;28;20517;-73
2023/09/28 08:09:28;;;;;;;23.17;5.45;;;18.20;86.00;;;;;;5015117;28;20030;-76
2023/09/28 08:11:55;;;;;;;23.13;4.72;;;18.40;85.70;;;;;;5015417;28;20039;-74
2023/09/28 08:14:22;;;;;;;20.55;5.43;;;18.40;85.40;;;;;;5015777;28;20092;-76
2023/09/28 08:16:48;;;;;;;24.58;5.05;;;18.60;85.10;;;;;;5014191;28;20143;-73
2023/09/28 08:19:14;;;;;;;25.88;5.78;;;18.60;84.80;;;;;;5015015;28;20492;-74
2023/09/28 08:21:40;;;;;;;25.10;5.22;;;18.60;84.20;;;;;;5021305;28;20107;-76
2023/09/28 08:24:08;;;;;;;23.38;5.40;;;18.60;84.20;;;;;;5017533;28;20075;-74
2023/09/28 08:26:37;;;;;;;22.63;5.22;;;18.60;84.00;;;;;;5018573;28;20622;-73
2023/09/28 08:29:06;;;;;;;21.17;5.30;;;18.60;84.10;;;;;;5014438;28;20030;-75
2023/09/28 08:31:32;;;;;;;23.02;4.95;;;18.70;83.90;;;;;;5018679;28;20029;-74
2023/09/28 08:33:59;;;;;;;20.17;5.22;;;18.70;83.90;;;;;;5017206;28;20026;-72
2023/09/28 08:36:28;;;;;;;18.92;4.43;;;18.70;83.10;;;;;;5012272;28;20036;-74
2023/09/28 08:38:54;;;;;;;22.65;5.45;;;18.90;82.90;;;;;;5017487;28;20036;-74
2023/09/28 08:41:55;;;;;;;19.67;4.75;;;19.00;82.60;;;;;;5014768;28;20446;-74
2023/09/28 08:44:25;;;;;;;24.33;5.75;;;19.10;82.40;;;;;;5020760;28;20033;-74
2023/09/28 08:46:58;;;;;;;19.98;4.95;;;19.10;81.70;;;;;;5016819;28;20376;-77
2023/09/28 08:49:26;;;;;;;15.90;4.03;;;19.10;81.50;;;;;;5016303;28;20473;-74
2023/09/28 08:51:54;;;;;;;18.80;4.60;;;19.10;81.60;;;;;;5021556;28;20029;-75
2023/09/28 08:54:22;;;;;;;18.80;4.80;;;19.10;81.70;;;;;;5018571;28;20045;-74
2023/09/28 08:56:51;;;;;;;21.90;4.68;;;19.20;81.10;;;;;;5023197;28;20045;-74
2023/09/28 08:59:18;;;;;;;20.80;4.93;;;19.30;80.80;;;;;;5018225;28;20278;-75
2023/09/28 09:01:46;;;;;;;19.63;5.22;;;19.40;80.80;;;;;;5022115;28;20034;-74
2023/09/28 09:04:11;;;;;;;20.75;4.85;;;19.30;80.60;;;;;;5019257;28;20537;-75
2023/09/28 09:06:37;;;;;;;22.25;5.07;;;19.30;81.50;;;;;;5019431;28;20038;-72
2023/09/28 09:09:07;;;;;;;21.55;5.72;;;19.50;81.80;;;;;;5018715;28;20471;-73
2023/09/28 09:11:37;;;;;;;20.98;5.00;;;19.50;81.40;;;;;;4998176;28;20113;-71
2023/09/28 09:14:02;;;;;;;30.60;6.25;;;19.60;81.30;;;;;;4992295;28;20400;-72
2023/09/28 09:16:29;;;;;;;20.33;4.88;;;19.70;81.00;;;;;;5014860;28;20042;-71
2023/09/28 09:18:58;;;;;;;17.38;4.13;;;19.80;81.00;;;;;;5014150;28;20100;-73
2023/09/28 09:21:24;;;;;;;17.08;4.82;;;19.80;80.90;;;;;;5017526;28;20212;-73
2023/09/28 09:24:19;;;;;;;18.92;4.68;;;19.80;81.00;;;;;;5013341;28;20571;-72
2023/09/28 09:26:51;;;;;;;15.98;5.05;;;19.80;80.10;;;;;;4994405;28;20455;-72
2023/09/28 09:29:16;;;;;;;16.52;4.32;;;19.90;79.20;;;;;;4990702;28;20503;-73
2023/09/28 09:31:44;;;;;;;17.70;4.80;;;19.80;79.50;;;;;;5001127;28;20121;-72
2023/09/28 09:34:18;;;;;;;18.60;4.57;;;20.00;78.90;;;;;;4995998;28;20407;-75
2023/09/28 09:36:57;;;;;;;13.65;3.70;;;20.00;78.30;;;;;;5001399;28;20095;-74
2023/09/28 09:39:24;;;;;;;20.05;5.32;;;20.00;78.40;;;;;;4995597;28;20455;-74
2023/09/28 09:41:51;;;;;;;15.32;4.05;;;20.00;78.30;;;;;;4998147;28;20041;-75
2023/09/28 09:44:21;;;;;;;17.45;3.50;;;19.90;77.30;;;;;;4994751;28;20140;-74
2023/09/28 09:46:50;;;;;;;18.35;4.07;;;19.80;77.50;;;;;;5000475;28;20040;-76
2023/09/28 09:49:19;;;;;;;16.25;3.90;;;19.80;77.80;;;;;;4997207;28;20185;-75
2023/09/28 09:51:47;;;;;;;17.02;3.92;;;19.80;77.70;;;;;;4995667;28;20026;-76
2023/09/28 09:54:17;;;;;;;22.33;4.07;;;19.70;78.10;;;;;;4997794;28;20037;-74
2023/09/28 09:56:48;;;;;;;19.33;5.05;;;19.60;78.50;;;;;;4996726;28;20050;-75
2023/09/28 09:59:16;;;;;;;17.83;4.53;;;19.60;78.30;;;;;;4999309;28;20070;-74
2023/09/28 10:01:47;;;;;;;19.10;5.03;;;19.50;79.10;;;;;;4998562;28;20042;-74
2023/09/28 10:04:18;;;;;;;17.52;4.88;;;19.60;79.70;;;;;;4995697;28;20088;-73
2023/09/28 10:06:58;;;;;;;17.52;3.95;;;19.70;79.50;;;;;;4997251;28;20073;-76
2023/09/28 10:09:24;;;;;;;16.35;4.70;;;19.80;79.10;;;;;;4995578;28;20045;-76
2023/09/28 10:11:51;;;;;;;15.35;4.60;;;19.90;78.80;;;;;;4995383;28;20615;-76
2023/09/28 10:14:21;;;;;;;15.45;4.22;;;20.10;78.50;;;;;;4994672;28;20455;-77
2023/09/28 10:16:53;;;;;;;18.20;4.55;;;20.40;78.00;;;;;;4997116;28;20602;-77
2023/09/28 10:19:21;;;;;;;15.57;3.83;;;20.50;76.70;;;;;;4996405;28;20037;-75
2023/09/28 10:21:47;;;;;;;14.77;3.85;;;20.60;76.40;;;;;;4983484;28;20034;-76
2023/09/28 10:24:20;;;;;;;14.35;3.28;;;20.60;74.70;;;;;;4986531;28;20147;-77
2023/09/28 10:26:50;;;;;;;12.93;3.00;;;20.80;74.20;;;;;;4990341;28;20045;-76
2023/09/28 10:29:28;;;;;;;14.48;3.17;;;21.10;73.20;;;;;;4991109;28;20042;-76
2023/09/28 10:31:54;;;;;;;12.00;2.72;;;21.30;73.40;;;;;;4989028;28;20043;-74
2023/09/28 10:34:22;;;;;;;14.30;3.00;;;21.30;72.40;;;;;;4990702;28;20049;-75
2023/09/28 10:37:21;;;;;;;14.73;3.65;;;21.60;71.90;;;;;;4983604;28;20041;-76
2023/09/28 10:39:53;;;;;;;15.45;3.55;;;21.90;70.60;;;;;;4987817;28;20095;-75
2023/09/28 10:42:22;;;;;;;16.27;2.80;;;21.70;68.80;;;;;;4993133;28;20033;-75
2023/09/28 10:44:55;;;;;;;10.18;2.72;;;21.70;68.50;;;;;;4987724;28;20467;-75
2023/09/28 10:47:21;;;;;;;13.23;2.80;;;21.90;68.90;;;;;;4987733;28;20365;-76
2023/09/28 10:49:52;;;;;;;9.85;2.20;;;21.90;67.80;;;;;;4986917;28;20029;-75
2023/09/28 10:52:17;;;;;;;12.52;2.70;;;22.00;67.60;;;;;;4990986;28;20488;-76
2023/09/28 10:54:44;;;;;;;13.80;2.83;;;22.20;67.10;;;;;;4988480;28;20041;-77
2023/09/28 10:57:10;;;;;;;11.82;2.95;;;22.10;67.80;;;;;;4987006;28;20050;-76
2023/09/28 10:59:37;;;;;;;12.38;3.33;;;22.00;67.10;;;;;;4985565;28;20045;-77
2023/09/28 11:02:04;;;;;;;11.13;2.97;;;21.70;68.20;;;;;;4984513;28;20405;-76
2023/09/28 11:04:30;;;;;;;14.35;3.08;;;21.50;68.60;;;;;;4991414;28;20134;-77
2023/09/28 11:06:56;;;;;;;13.90;3.25;;;21.30;69.00;;;;;;4988722;28;20034;-75
2023/09/28 11:09:22;;;;;;;13.27;3.60;;;21.30;69.40;;;;;;4987101;28;20125;-78
2023/09/28 11:11:49;;;;;;;12.18;3.40;;;21.20;70.40;;;;;;4984928;28;20058;-76
2023/09/28 11:14:15;;;;;;;15.50;3.05;;;21.40;70.20;;;;;;4983628;28;20030;-74
2023/09/28 11:16:42;;;;;;;15.30;4.10;;;21.60;69.50;;;;;;4987167;28;20042;-77
2023/09/28 11:19:12;;;;;;;13.73;3.42;;;21.60;69.60;;;;;;4983494;28;20034;-74
2023/09/28 11:21:42;;;;;;;14.98;3.65;;;21.60;69.60;;;;;;4987001;28;20563;-75
2023/09/28 11:24:07;;;;;;;20.05;5.07;;;21.80;70.50;;;;;;4987335;28;20789;-75
2023/09/28 11:26:34;;;;;;;13.85;3.97;;;22.10;68.50;;;;;;4988693;28;20515;-76
2023/09/28 11:29:00;;;;;;;16.27;3.40;;;22.00;69.10;;;;;;4985070;28;20034;-76
2023/09/28 11:31:27;;;;;;;13.98;3.72;;;22.10;69.10;;;;;;4988384;28;20409;-76
2023/09/28 11:33:56;;;;;;;20.70;3.83;;;22.20;69.50;;;;;;4987748;28;20141;-76
2023/09/28 11:36:22;;;;;;;18.95;4.47;;;22.30;69.10;;;;;;4986608;28;20088;-76
2023/09/28 11:38:49;;;;;;;11.77;3.15;;;22.50;68.90;;;;;;4990981;28;20472;-76
2023/09/28 11:41:15;;;;;;;21.23;4.90;;;22.50;68.40;;;;;;4992135;28;20145;-78
2023/09/28 11:43:48;;;;;;;15.82;3.70;;;22.60;68.70;;;;;;4995272;28;20026;-75
2023/09/28 11:46:28;;;;;;;12.93;4.13;;;22.60;67.80;;;;;;4997771;28;20053;-75
2023/09/28 11:49:04;;;;;;;15.90;3.70;;;22.50;68.10;;;;;;4992005;28;20487;-74
2023/09/28 11:51:34;;;;;;;13.98;3.30;;;22.50;67.80;;;;;;4994506;28;20117;-74
2023/09/28 11:54:01;;;;;;;13.05;3.03;;;22.30;68.30;;;;;;4995598;28;20030;-76
2023/09/28 11:56:27;;;;;;;14.23;3.00;;;22.30;67.40;;;;;;4994336;28;20046;-75
2023/09/28 11:58:53;;;;;;;10.95;3.25;;;22.30;66.80;;;;;;4989458;28;20026;-75
2023/09/28 12:01:19;;;;;;;14.98;4.00;;;22.40;67.10;;;;;;4994891;28;20038;-75
2023/09/28 12:03:47;;;;;;;13.20;2.92;;;22.70;66.50;;;;;;4990995;28;20037;-74
2023/09/28 12:06:14;;;;;;;17.02;4.50;;;22.80;66.70;;;;;;4998212;28;20189;-77
2023/09/28 12:08:40;;;;;;;12.85;3.13;;;22.80;66.20;;;;;;4995075;28;20034;-78
2023/09/28 12:11:05;;;;;;;15.43;4.22;;;22.80;66.40;;;;;;4998581;28;20030;-75
2023/09/28 12:13:31;;;;;;;12.45;3.08;;;23.00;65.90;;;;;;4994032;28;20022;-77
2023/09/28 12:15:57;;;;;;;18.98;3.45;;;23.00;65.50;;;;;;4998064;28;20407;-75
2023/09/28 12:18:22;;;;;;;13.27;3.15;;;22.80;65.70;;;;;;5003082;28;20026;-77
2023/09/28 12:20:48;;;;;;;17.77;3.55;;;22.50;66.70;;;;;;5003797;28;20116;-77
2023/09/28 12:23:14;;;;;;;14.55;3.72;;;22.30;67.80;;;;;;5003252;28;20637;-76
2023/09/28 12:25:40;;;;;;;14.10;3.72;;;22.20;67.40;;;;;;5003529;28;20048;-77
2023/09/28 12:28:07;;;;;;;17.13;3.72;;;22.10;68.40;;;;;;5002656;28;20610;-74
2023/09/28 12:30:33;;;;;;;11.93;3.50;;;22.00;68.50;;;;;;4995557;28;20464;-74
2023/09/28 12:32:59;;;;;;;14.07;3.50;;;21.90;68.90;;;;;;5004418;28;20057;-76
2023/09/28 12:35:26;;;;;;;14.23;3.08;;;21.80;69.50;;;;;;5001217;28;20126;-75
2023/09/28 12:37:53;;;;;;;17.58;3.88;;;21.80;69.30;;;;;;5000780;28;20019;-74
2023/09/28 12:40:19;;;;;;;13.45;3.45;;;21.90;69.90;;;;;;5001095;28;20048;-74
2023/09/28 12:42:45;;;;;;;11.45;2.85;;;21.80;69.80;;;;;;5001022;28;20081;-74